Time;durP1;ratioP1;P1;durP2;ratioP2;P2;SDS_P1;SDS_P2;PMS_P1;PMS_P2;Temp;Humidity;BMP_temperature;BMP_pressure;BME280_temperature;BME280_humidity;BME280_pressure;Samples;Min_cycle;Max_cycle;Signal;HPM_P1;HPM_P2
2024/01/07 00:01:20;;;;;;;3.73;3.40;;;;;;;;;;4944924;28;20676;-86
2024/01/07 00:03:45;;;;;;;5.93;3.30;;;;;;;;;;4954460;28;20237;-85
2024/01/07 00:06:11;;;;;;;3.50;3.20;;;;;;;;;;4946713;28;20221;-86
2024/01/07 00:08:37;;;;;;;3.10;2.83;;;;;;;;;;4977719;28;20228;-86
2024/01/07 00:11:04;;;;;;;4.37;3.33;;;;;;;;;;4993305;28;20213;-85
2024/01/07 00:13:32;;;;;;;3.90;3.30;;;;;;;;;;4947926;28;20303;-86
2024/01/07 00:16:00;;;;;;;3.80;2.80;;;;;;;;;;4961270;28;20214;-87
2024/01/07 00:18:28;;;;;;;3.37;3.10;;;;;;;;;;4980071;28;20228;-86
2024/01/07 00:20:58;;;;;;;3.37;3.07;;;;;;;;;;4965107;28;20237;-87
2024/01/07 00:23:24;;;;;;;3.20;2.90;;;;;;;;;;4995026;28;20230;-87
2024/01/07 00:25:52;;;;;;;4.03;3.23;;;;;;;;;;4978630;28;20221;-86
2024/01/07 00:28:22;;;;;;;3.50;3.20;;;;;;;;;;4972347;28;20237;-85
2024/01/07 00:30:50;;;;;;;3.33;3.03;;;;;;;;;;4965094;28;20233;-87
2024/01/07 00:33:15;;;;;;;3.97;3.53;;;;;;;;;;4975329;28;20217;-86
2024/01/07 00:35:41;;;;;;;5.70;3.50;;;;;;;;;;4985970;28;20240;-85
2024/01/07 00:38:09;;;;;;;3.83;3.37;;;;;;;;;;4971375;28;20221;-87
2024/01/07 00:40:34;;;;;;;4.30;3.90;;;;;;;;;;4961861;28;20711;-87
2024/01/07 00:43:02;;;;;;;4.03;3.63;;;;;;;;;;4977940;28;20360;-86
2024/01/07 00:45:28;;;;;;;5.13;3.23;;;;;;;;;;4975823;28;20214;-87
2024/01/07 00:47:55;;;;;;;4.40;3.47;;;;;;;;;;4977273;28;20218;-86
2024/01/07 00:50:24;;;;;;;3.30;3.00;;;;;;;;;;4973197;28;20222;-86
2024/01/07 00:52:52;;;;;;;4.17;3.43;;;;;;;;;;4969958;28;20252;-87
2024/01/07 00:55:22;;;;;;;4.73;3.80;;;;;;;;;;4962246;28;20221;-88
2024/01/07 00:57:50;;;;;;;4.37;3.60;;;;;;;;;;4958960;28;20248;-85
2024/01/07 01:00:16;;;;;;;5.10;3.50;;;;;;;;;;4980752;28;20229;-86
2024/01/07 01:02:45;;;;;;;3.50;3.17;;;;;;;;;;4962964;28;20638;-87
2024/01/07 01:05:16;;;;;;;3.87;3.50;;;;;;;;;;4974981;28;20218;-86
2024/01/07 01:07:46;;;;;;;3.97;3.50;;;;;;;;;;4986251;28;20229;-87
2024/01/07 01:10:16;;;;;;;3.20;3.00;;;;;;;;;;4962994;28;20232;-86
2024/01/07 01:12:42;;;;;;;3.60;3.30;;;;;;;;;;4979285;28;20237;-86
2024/01/07 01:15:11;;;;;;;3.67;3.37;;;;;;;;;;4976985;28;20221;-86
2024/01/07 01:17:36;;;;;;;3.87;3.57;;;;;;;;;;4976510;28;20316;-86
2024/01/07 01:20:04;;;;;;;4.27;3.47;;;;;;;;;;4977190;28;20245;-84
2024/01/07 01:22:30;;;;;;;3.70;3.30;;;;;;;;;;4976143;28;20630;-86
2024/01/07 01:24:56;;;;;;;3.47;3.13;;;;;;;;;;4980064;28;20209;-85
2024/01/07 01:27:21;;;;;;;3.40;2.83;;;;;;;;;;4969605;28;20214;-85
2024/01/07 01:29:49;;;;;;;3.40;3.10;;;;;;;;;;4961611;28;20222;-85
2024/01/07 01:32:15;;;;;;;4.00;3.17;;;;;;;;;;4967684;28;20264;-87
2024/01/07 01:34:43;;;;;;;2.63;2.43;;;;;;;;;;4974974;28;20253;-86
2024/01/07 01:37:08;;;;;;;3.37;2.80;;;;;;;;;;4958110;28;20214;-87
2024/01/07 01:39:40;;;;;;;3.70;2.83;;;;;;;;;;4978867;28;20346;-85
2024/01/07 01:42:05;;;;;;;3.53;3.23;;;;;;;;;;4977894;28;20222;-87
2024/01/07 01:44:32;;;;;;;2.23;2.07;;;;;;;;;;4979569;28;20229;-87
2024/01/07 01:47:00;;;;;;;2.50;2.30;;;;;;;;;;4995450;28;20236;-86
2024/01/07 01:49:26;;;;;;;2.80;2.60;;;;;;;;;;4977723;28;20220;-87
2024/01/07 01:51:52;;;;;;;3.53;2.50;;;;;;;;;;4959129;28;20233;-85
2024/01/07 01:54:20;;;;;;;2.17;1.97;;;;;;;;;;4982476;28;20312;-86
2024/01/07 01:56:46;;;;;;;2.30;2.10;;;;;;;;;;4982552;28;20793;-85
2024/01/07 01:59:14;;;;;;;2.43;2.13;;;;;;;;;;4959593;28;20760;-85
2024/01/07 02:01:42;;;;;;;4.47;2.60;;;;;;;;;;4973577;28;20220;-87
2024/01/07 02:04:08;;;;;;;2.23;2.03;;;;;;;;;;4950118;28;20338;-87
2024/01/07 02:06:34;;;;;;;2.40;2.00;;;;;;;;;;4959805;28;20685;-85
2024/01/07 02:09:03;;;;;;;2.90;2.13;;;;;;;;;;4977086;28;20234;-87
2024/01/07 02:11:29;;;;;;;2.00;1.80;;;;;;;;;;4971295;28;20286;-86
2024/01/07 02:13:54;;;;;;;2.23;1.97;;;;;;;;;;4980916;28;20675;-88
2024/01/07 02:16:20;;;;;;;2.20;2.00;;;;;;;;;;4950907;28;20263;-86
2024/01/07 02:18:48;;;;;;;2.43;2.23;;;;;;;;;;4993653;28;20217;-87
2024/01/07 02:21:13;;;;;;;2.33;2.00;;;;;;;;;;4990949;28;20234;-84
2024/01/07 02:23:39;;;;;;;2.40;2.13;;;;;;;;;;4990866;28;20238;-87
2024/01/07 02:26:07;;;;;;;2.63;2.30;;;;;;;;;;4976605;28;20225;-86
2024/01/07 02:28:33;;;;;;;3.53;2.10;;;;;;;;;;4993800;28;20289;-86
2024/01/07 02:31:01;;;;;;;1.87;1.77;;;;;;;;;;5007370;28;20229;-85
2024/01/07 02:33:26;;;;;;;3.57;1.97;;;;;;;;;;5015517;28;20221;-86
2024/01/07 02:35:52;;;;;;;2.23;2.03;;;;;;;;;;4994553;28;20223;-85
2024/01/07 02:38:17;;;;;;;2.60;2.30;;;;;;;;;;4972065;28;20591;-85
2024/01/07 02:40:47;;;;;;;2.23;2.03;;;;;;;;;;4987391;28;20248;-86
2024/01/07 02:43:13;;;;;;;1.93;1.83;;;;;;;;;;4977966;28;20226;-86
2024/01/07 02:45:38;;;;;;;2.87;2.27;;;;;;;;;;4975675;28;20221;-86
2024/01/07 02:48:04;;;;;;;2.73;2.20;;;;;;;;;;4963593;28;20229;-88
2024/01/07 02:50:33;;;;;;;2.43;2.20;;;;;;;;;;4976124;28;20225;-86
2024/01/07 02:53:01;;;;;;;1.90;1.80;;;;;;;;;;4969339;28;20240;-86
2024/01/07 02:55:33;;;;;;;2.10;1.90;;;;;;;;;;4943783;28;20253;-86
2024/01/07 02:57:59;;;;;;;2.10;1.90;;;;;;;;;;4968080;28;20221;-86
2024/01/07 03:00:24;;;;;;;2.30;1.90;;;;;;;;;;4978530;28;20217;-87
2024/01/07 03:02:53;;;;;;;2.13;1.97;;;;;;;;;;4980651;28;20350;-86
2024/01/07 03:05:20;;;;;;;2.17;2.00;;;;;;;;;;4970435;28;20771;-86
2024/01/07 03:07:48;;;;;;;2.13;1.97;;;;;;;;;;4945699;28;20312;-85
2024/01/07 03:10:14;;;;;;;2.90;2.50;;;;;;;;;;5004266;28;20241;-86
2024/01/07 03:12:42;;;;;;;5.07;2.10;;;;;;;;;;4948147;28;20738;-85
2024/01/07 03:15:10;;;;;;;2.10;1.93;;;;;;;;;;4993809;28;20236;-86
2024/01/07 03:17:36;;;;;;;2.17;1.97;;;;;;;;;;4961839;28;20253;-87
2024/01/07 03:20:04;;;;;;;2.13;1.93;;;;;;;;;;4978201;28;20244;-87
2024/01/07 03:22:32;;;;;;;2.33;2.13;;;;;;;;;;4961086;28;20221;-87
2024/01/07 03:25:00;;;;;;;2.33;2.13;;;;;;;;;;4979316;28;20647;-86
2024/01/07 03:27:28;;;;;;;2.30;2.00;;;;;;;;;;4960010;28;20233;-86
2024/01/07 03:29:56;;;;;;;5.47;2.50;;;;;;;;;;4994896;28;20650;-87
2024/01/07 03:32:22;;;;;;;2.63;2.00;;;;;;;;;;4956635;28;20217;-87
2024/01/07 03:34:47;;;;;;;2.50;1.97;;;;;;;;;;4950332;28;20226;-85
2024/01/07 03:37:15;;;;;;;2.67;2.23;;;;;;;;;;4984827;28;20221;-86
2024/01/07 03:39:41;;;;;;;2.57;2.30;;;;;;;;;;4947051;28;20245;-87
2024/01/07 03:42:11;;;;;;;2.53;2.00;;;;;;;;;;4985841;28;20566;-85
2024/01/07 03:44:38;;;;;;;2.33;2.07;;;;;;;;;;4975964;28;20256;-85
2024/01/07 03:47:04;;;;;;;2.00;1.80;;;;;;;;;;4958009;28;20273;-85
2024/01/07 03:49:29;;;;;;;2.03;1.83;;;;;;;;;;4973875;28;20232;-85
2024/01/07 03:51:57;;;;;;;2.17;1.97;;;;;;;;;;4972755;28;20218;-87
2024/01/07 03:54:25;;;;;;;2.20;1.73;;;;;;;;;;4975333;28;20631;-86
2024/01/07 03:56:51;;;;;;;2.63;2.00;;;;;;;;;;4963202;28;20236;-87
2024/01/07 04:03:04;;;;;;;1.90;1.80;;;;;;;;;;4995464;28;20310;-85
2024/01/07 04:05:29;;;;;;;2.47;2.10;;;;;;;;;;4958069;28;20716;-87
2024/01/07 04:07:59;;;;;;;3.00;2.20;;;;;;;;;;4976458;28;20226;-86
2024/01/07 04:10:25;;;;;;;2.87;1.90;;;;;;;;;;4973087;28;20240;-87
2024/01/07 04:12:53;;;;;;;3.23;2.03;;;;;;;;;;4959603;28;20217;-86
2024/01/07 04:15:20;;;;;;;2.30;2.10;;;;;;;;;;4942531;28;20232;-85
2024/01/07 04:17:51;;;;;;;2.43;2.03;;;;;;;;;;4967710;28;20221;-86
2024/01/07 04:20:18;;;;;;;2.23;2.00;;;;;;;;;;4961428;28;20272;-84
2024/01/07 04:22:46;;;;;;;1.67;1.57;;;;;;;;;;4960803;28;20221;-88
2024/01/07 04:25:12;;;;;;;2.20;1.90;;;;;;;;;;4978055;28;20229;-87
2024/01/07 04:27:38;;;;;;;3.10;2.03;;;;;;;;;;4942966;28;20214;-87
2024/01/07 04:30:04;;;;;;;1.67;1.57;;;;;;;;;;4944776;28;20308;-86
2024/01/07 04:32:32;;;;;;;2.67;1.90;;;;;;;;;;4949390;28;20217;-86
2024/01/07 04:34:58;;;;;;;9.70;2.20;;;;;;;;;;4989905;28;20725;-87
2024/01/07 04:37:26;;;;;;;2.00;1.80;;;;;;;;;;4989366;28;20221;-86
2024/01/07 04:39:57;;;;;;;3.90;2.13;;;;;;;;;;4981509;28;20242;-87
2024/01/07 04:42:27;;;;;;;2.00;1.90;;;;;;;;;;4938965;28;20687;-86
2024/01/07 04:44:55;;;;;;;2.13;1.93;;;;;;;;;;4966373;28;20226;-85
2024/01/07 04:47:31;;;;;;;2.23;2.00;;;;;;;;;;4977687;28;20280;-87
2024/01/07 04:49:59;;;;;;;2.17;1.80;;;;;;;;;;4977485;28;20225;-87
2024/01/07 04:52:26;;;;;;;1.77;1.67;;;;;;;;;;4961158;28;20552;-87
2024/01/07 04:54:55;;;;;;;2.73;1.97;;;;;;;;;;4977384;28;20229;-88
2024/01/07 04:57:23;;;;;;;4.20;2.10;;;;;;;;;;4941894;28;20228;-87
2024/01/07 04:59:49;;;;;;;2.27;2.07;;;;;;;;;;4946777;28;20260;-88
2024/01/07 05:02:15;;;;;;;2.20;2.00;;;;;;;;;;4977425;28;20248;-87
2024/01/07 05:04:43;;;;;;;2.57;1.90;;;;;;;;;;4969311;28;20226;-88
2024/01/07 05:07:08;;;;;;;2.23;2.00;;;;;;;;;;4956017;28;20228;-86
2024/01/07 05:09:34;;;;;;;2.03;1.93;;;;;;;;;;4966310;28;20588;-86
2024/01/07 05:12:02;;;;;;;2.53;1.80;;;;;;;;;;5002370;28;20222;-87
2024/01/07 05:14:32;;;;;;;2.30;2.10;;;;;;;;;;4977691;28;20225;-87
2024/01/07 05:17:00;;;;;;;2.10;1.70;;;;;;;;;;4978063;28;20719;-87
2024/01/07 05:19:28;;;;;;;2.10;1.90;;;;;;;;;;4986361;28;20226;-86
2024/01/07 05:21:54;;;;;;;2.27;1.83;;;;;;;;;;4974416;28;20268;-87
2024/01/07 05:24:21;;;;;;;1.87;1.77;;;;;;;;;;4977137;28;20309;-88
2024/01/07 05:26:51;;;;;;;2.87;2.00;;;;;;;;;;4982060;28;20237;-88
2024/01/07 05:29:17;;;;;;;1.90;1.80;;;;;;;;;;4961555;28;20254;-87
2024/01/07 05:31:43;;;;;;;2.10;1.83;;;;;;;;;;4957099;28;20224;-87
2024/01/07 05:34:08;;;;;;;1.80;1.67;;;;;;;;;;4978305;28;20234;-88
2024/01/07 05:36:34;;;;;;;1.87;1.70;;;;;;;;;;4961404;28;20230;-87
2024/01/07 05:39:02;;;;;;;2.87;1.80;;;;;;;;;;4978048;28;20646;-87
2024/01/07 05:41:28;;;;;;;1.70;1.60;;;;;;;;;;4954617;28;20233;-87
2024/01/07 05:43:55;;;;;;;1.97;1.77;;;;;;;;;;4937291;28;20221;-86
2024/01/07 05:46:21;;;;;;;1.60;1.50;;;;;;;;;;4964172;28;20290;-86
2024/01/07 05:48:49;;;;;;;2.07;1.60;;;;;;;;;;4952892;28;20222;-88
2024/01/07 05:51:15;;;;;;;2.00;1.80;;;;;;;;;;4961091;28;20240;-87
2024/01/07 05:53:41;;;;;;;1.80;1.70;;;;;;;;;;4965738;28;20765;-88
2024/01/07 05:56:07;;;;;;;2.17;1.60;;;;;;;;;;4981673;28;20230;-86
2024/01/07 05:58:33;;;;;;;3.37;1.70;;;;;;;;;;4969310;28;20252;-86
2024/01/07 06:00:58;;;;;;;1.53;1.43;;;;;;;;;;4984563;28;20578;-87
2024/01/07 06:03:24;;;;;;;1.87;1.70;;;;;;;;;;4960089;28;20228;-86
2024/01/07 06:05:52;;;;;;;1.90;1.80;;;;;;;;;;4978412;28;20242;-87
2024/01/07 06:08:17;;;;;;;1.93;1.50;;;;;;;;;;4971404;28;20223;-87
2024/01/07 06:10:43;;;;;;;1.80;1.70;;;;;;;;;;4949344;28;20261;-88
2024/01/07 06:13:08;;;;;;;2.50;2.07;;;;;;;;;;4980983;28;20232;-88
2024/01/07 06:15:34;;;;;;;1.67;1.57;;;;;;;;;;4972582;28;20225;-86
2024/01/07 06:18:02;;;;;;;4.20;1.90;;;;;;;;;;4964531;28;20769;-87
2024/01/07 06:20:30;;;;;;;2.13;1.93;;;;;;;;;;4970176;28;20256;-87
2024/01/07 06:22:55;;;;;;;1.77;1.67;;;;;;;;;;4943396;28;20217;-88
2024/01/07 06:25:21;;;;;;;2.43;1.93;;;;;;;;;;4977649;28;20698;-87
2024/01/07 06:27:49;;;;;;;2.03;1.63;;;;;;;;;;4996129;28;20242;-87
2024/01/07 06:30:18;;;;;;;1.53;1.43;;;;;;;;;;4952564;28;20691;-89
2024/01/07 06:32:48;;;;;;;2.10;1.90;;;;;;;;;;4948379;28;20236;-88
2024/01/07 06:35:13;;;;;;;2.20;2.00;;;;;;;;;;4972882;28;20316;-87
2024/01/07 06:37:39;;;;;;;3.70;1.70;;;;;;;;;;4988779;28;20281;-86
2024/01/07 06:40:05;;;;;;;1.97;1.77;;;;;;;;;;4968888;28;20581;-86
2024/01/07 06:42:30;;;;;;;1.93;1.60;;;;;;;;;;4987765;28;20287;-87
2024/01/07 06:44:58;;;;;;;1.50;1.40;;;;;;;;;;4988933;28;20590;-87
2024/01/07 06:47:24;;;;;;;1.97;1.73;;;;;;;;;;4963238;28;20312;-87
2024/01/07 06:49:54;;;;;;;3.13;1.53;;;;;;;;;;4984880;28;20222;-85
2024/01/07 06:52:20;;;;;;;1.60;1.50;;;;;;;;;;4989774;28;20249;-86
2024/01/07 06:54:46;;;;;;;2.47;1.67;;;;;;;;;;4955972;28;20639;-87
2024/01/07 06:57:14;;;;;;;2.53;1.73;;;;;;;;;;4961725;28;20218;-87
2024/01/07 06:59:42;;;;;;;1.50;1.40;;;;;;;;;;4956076;28;20316;-87
2024/01/07 07:02:07;;;;;;;2.53;1.50;;;;;;;;;;4961963;28;20232;-86
2024/01/07 07:04:38;;;;;;;2.33;1.90;;;;;;;;;;4970729;28;20698;-87
2024/01/07 07:07:06;;;;;;;2.60;1.83;;;;;;;;;;4982326;28;20233;-88
2024/01/07 07:09:36;;;;;;;3.00;2.20;;;;;;;;;;4972157;28;20225;-87
2024/01/07 07:12:01;;;;;;;4.20;1.63;;;;;;;;;;4954225;28;20262;-86
2024/01/07 07:14:27;;;;;;;1.57;1.40;;;;;;;;;;4977406;28;20565;-86
2024/01/07 07:16:52;;;;;;;1.60;1.50;;;;;;;;;;4953767;28;20228;-87
2024/01/07 07:19:18;;;;;;;1.33;1.17;;;;;;;;;;4941116;28;20226;-85
2024/01/07 07:21:44;;;;;;;1.70;1.60;;;;;;;;;;4960455;28;20225;-86
2024/01/07 07:24:12;;;;;;;1.50;1.40;;;;;;;;;;4956533;28;20222;-87
2024/01/07 07:26:40;;;;;;;1.53;1.43;;;;;;;;;;4961346;28;20260;-87
2024/01/07 07:29:09;;;;;;;2.00;1.60;;;;;;;;;;4978534;28;20681;-87
2024/01/07 07:31:35;;;;;;;3.33;1.70;;;;;;;;;;4946582;28;20232;-86
2024/01/07 07:34:04;;;;;;;1.80;1.30;;;;;;;;;;4975590;28;20244;-86
2024/01/07 07:36:29;;;;;;;1.60;1.47;;;;;;;;;;4982038;28;20263;-88
2024/01/07 07:38:55;;;;;;;1.90;1.40;;;;;;;;;;4976299;28;20221;-87
2024/01/07 07:41:23;;;;;;;2.23;1.90;;;;;;;;;;5000354;28;20655;-88
2024/01/07 07:43:49;;;;;;;1.87;1.53;;;;;;;;;;4971573;28;20221;-86
2024/01/07 07:46:16;;;;;;;2.37;1.60;;;;;;;;;;4977371;28;20226;-85
2024/01/07 07:48:44;;;;;;;1.73;1.60;;;;;;;;;;4973849;28;20706;-87
2024/01/07 07:51:11;;;;;;;2.33;1.47;;;;;;;;;;4968795;28;20221;-86
2024/01/07 07:53:40;;;;;;;1.83;1.50;;;;;;;;;;4959935;28;20225;-87
2024/01/07 07:56:06;;;;;;;1.47;1.27;;;;;;;;;;4973524;28;20312;-88
2024/01/07 07:58:34;;;;;;;3.47;1.70;;;;;;;;;;4966995;28;20225;-85
2024/01/07 08:01:02;;;;;;;2.20;1.43;;;;;;;;;;4973323;28;20261;-87
2024/01/07 08:03:28;;;;;;;1.90;1.40;;;;;;;;;;4962872;28;20601;-86
2024/01/07 08:05:53;;;;;;;2.27;1.60;;;;;;;;;;4978561;28;20229;-87
2024/01/07 08:08:19;;;;;;;1.60;1.50;;;;;;;;;;4949509;28;20245;-88
2024/01/07 08:10:44;;;;;;;1.97;1.53;;;;;;;;;;4992740;28;20236;-87
2024/01/07 08:13:10;;;;;;;1.80;1.30;;;;;;;;;;4946876;28;20237;-87
2024/01/07 08:15:37;;;;;;;3.33;1.67;;;;;;;;;;4959989;28;20226;-85
2024/01/07 08:18:05;;;;;;;3.40;1.73;;;;;;;;;;4959799;28;20217;-87
2024/01/07 08:20:31;;;;;;;1.97;1.57;;;;;;;;;;4971442;28;20229;-87
2024/01/07 08:23:01;;;;;;;3.27;1.67;;;;;;;;;;4954529;28;20223;-87
2024/01/07 08:25:27;;;;;;;2.13;1.60;;;;;;;;;;4959584;28;20224;-87
2024/01/07 08:27:52;;;;;;;1.50;1.40;;;;;;;;;;4976781;28;20299;-89
2024/01/07 08:30:20;;;;;;;1.53;1.43;;;;;;;;;;4954508;28;20701;-88
2024/01/07 08:32:46;;;;;;;1.90;1.70;;;;;;;;;;4948771;28;20345;-88
2024/01/07 08:35:12;;;;;;;2.20;1.60;;;;;;;;;;4965456;28;20267;-88
2024/01/07 08:37:37;;;;;;;3.70;1.70;;;;;;;;;;4978518;28;20234;-88
2024/01/07 08:40:03;;;;;;;2.70;1.77;;;;;;;;;;4995716;28;20234;-89
2024/01/07 08:42:30;;;;;;;3.80;1.67;;;;;;;;;;4990888;28;20256;-86
2024/01/07 08:44:56;;;;;;;1.83;1.50;;;;;;;;;;5008777;28;20225;-87
2024/01/07 08:47:22;;;;;;;1.93;1.77;;;;;;;;;;4981259;28;20221;-87
2024/01/07 08:49:47;;;;;;;5.57;2.17;;;;;;;;;;4986603;28;20291;-88
2024/01/07 08:52:13;;;;;;;1.53;1.43;;;;;;;;;;4961884;28;20225;-88
2024/01/07 08:54:41;;;;;;;2.20;2.00;;;;;;;;;;4965998;28;20699;-87
2024/01/07 08:57:08;;;;;;;1.57;1.47;;;;;;;;;;4982229;28;20213;-87
2024/01/07 08:59:35;;;;;;;2.57;1.63;;;;;;;;;;4968453;28;20320;-87
2024/01/07 09:02:06;;;;;;;2.70;1.40;;;;;;;;;;4966538;28;20220;-89
2024/01/07 09:04:33;;;;;;;3.60;1.47;;;;;;;;;;4952131;28;20222;-88
2024/01/07 09:06:59;;;;;;;2.67;1.77;;;;;;;;;;4960596;28;20225;-87
2024/01/07 09:09:24;;;;;;;2.47;1.50;;;;;;;;;;4956571;28;20224;-88
2024/01/07 09:11:51;;;;;;;1.77;1.60;;;;;;;;;;4972399;28;20228;-87
2024/01/07 09:14:17;;;;;;;1.67;1.40;;;;;;;;;;4961542;28;20593;-88
2024/01/07 09:16:45;;;;;;;1.83;1.73;;;;;;;;;;4970877;28;20233;-88
2024/01/07 09:19:12;;;;;;;2.97;1.80;;;;;;;;;;4946192;28;20301;-87
2024/01/07 09:21:40;;;;;;;1.50;1.40;;;;;;;;;;4973666;28;20234;-87
2024/01/07 09:24:05;;;;;;;2.93;1.70;;;;;;;;;;4982284;28;20597;-88
2024/01/07 09:26:33;;;;;;;6.20;1.60;;;;;;;;;;4984898;28;20233;-87
2024/01/07 09:28:59;;;;;;;1.17;1.07;;;;;;;;;;4974975;28;20222;-88
2024/01/07 09:31:24;;;;;;;2.77;2.50;;;;;;;;;;4957235;28;20347;-87
2024/01/07 09:33:50;;;;;;;2.17;1.80;;;;;;;;;;4961262;28;20296;-86
2024/01/07 09:36:18;;;;;;;1.60;1.50;;;;;;;;;;4979538;28;20230;-87
2024/01/07 09:38:44;;;;;;;1.53;1.20;;;;;;;;;;4947113;28;20221;-88
2024/01/07 09:41:09;;;;;;;1.80;1.43;;;;;;;;;;4960634;28;20256;-88
2024/01/07 09:43:35;;;;;;;1.63;1.33;;;;;;;;;;4979928;28;20690;-88
2024/01/07 09:46:02;;;;;;;2.20;1.63;;;;;;;;;;4967141;28;20233;-88
2024/01/07 09:48:29;;;;;;;2.57;1.10;;;;;;;;;;4981567;28;20272;-86
2024/01/07 09:50:55;;;;;;;3.10;1.50;;;;;;;;;;4975886;28;20236;-88
2024/01/07 09:53:21;;;;;;;1.63;1.20;;;;;;;;;;4965169;28;20275;-89
2024/01/07 09:56:10;;;;;;;3.53;1.53;;;;;;;;;;4962144;28;20284;-88
2024/01/07 09:58:35;;;;;;;4.60;1.60;;;;;;;;;;4981325;28;20306;-87
2024/01/07 10:01:05;;;;;;;1.97;1.30;;;;;;;;;;4987498;28;20275;-86
2024/01/07 10:03:31;;;;;;;2.23;1.63;;;;;;;;;;4978042;28;20659;-87
2024/01/07 10:06:02;;;;;;;4.07;1.60;;;;;;;;;;4970005;28;20217;-87
2024/01/07 10:08:29;;;;;;;2.97;2.23;;;;;;;;;;4961305;28;20260;-88
2024/01/07 10:10:55;;;;;;;1.63;1.40;;;;;;;;;;4947744;28;20228;-88
2024/01/07 10:13:23;;;;;;;4.07;1.73;;;;;;;;;;4962708;28;20218;-87
2024/01/07 10:15:49;;;;;;;1.43;1.33;;;;;;;;;;4982491;28;20317;-87
2024/01/07 10:18:14;;;;;;;1.43;1.30;;;;;;;;;;4980230;28;20237;-88
2024/01/07 10:20:42;;;;;;;2.77;1.90;;;;;;;;;;4984746;28;20226;-88
2024/01/07 10:23:08;;;;;;;2.00;1.80;;;;;;;;;;4946855;28;20217;-88
2024/01/07 10:25:34;;;;;;;1.63;1.53;;;;;;;;;;4987902;28;20245;-85
2024/01/07 10:28:02;;;;;;;3.90;1.80;;;;;;;;;;4997778;28;20220;-88
2024/01/07 10:30:31;;;;;;;1.83;1.40;;;;;;;;;;4997085;28;20388;-85
2024/01/07 10:32:59;;;;;;;5.30;1.83;;;;;;;;;;4974614;28;20202;-88
2024/01/07 10:35:30;;;;;;;1.43;1.33;;;;;;;;;;4989896;28;20229;-89
2024/01/07 10:37:59;;;;;;;2.30;1.80;;;;;;;;;;5003666;28;20221;-86
2024/01/07 10:40:27;;;;;;;2.23;1.73;;;;;;;;;;4972139;28;20260;-87
2024/01/07 10:42:52;;;;;;;5.00;1.80;;;;;;;;;;4976344;28;20698;-88
2024/01/07 10:45:18;;;;;;;1.77;1.67;;;;;;;;;;4978692;28;20213;-87
2024/01/07 10:47:43;;;;;;;2.00;1.63;;;;;;;;;;4961442;28;20240;-88
2024/01/07 10:50:09;;;;;;;2.13;1.63;;;;;;;;;;4978234;28;20217;-85
2024/01/07 10:52:35;;;;;;;3.53;1.70;;;;;;;;;;4993626;28;20229;-88
2024/01/07 10:55:09;;;;;;;5.17;2.10;;;;;;;;;;4971091;28;20308;-87
2024/01/07 10:57:45;;;;;;;3.57;2.17;;;;;;;;;;4977711;28;20319;-86
2024/01/07 11:00:18;;;;;;;2.03;1.83;;;;;;;;;;4960154;28;20213;-88
2024/01/07 11:02:50;;;;;;;1.53;1.43;;;;;;;;;;4992062;28;20206;-86
2024/01/07 11:05:28;;;;;;;2.87;2.27;;;;;;;;;;5006288;28;20253;-86
2024/01/07 11:08:17;;;;;;;2.10;1.80;;;;;;;;;;4954490;28;20390;-86
2024/01/07 11:10:46;;;;;;;2.17;1.97;;;;;;;;;;4979918;28;20262;-85
2024/01/07 11:13:17;;;;;;;1.70;1.60;;;;;;;;;;4965604;28;20220;-86
2024/01/07 11:15:59;;;;;;;2.77;1.93;;;;;;;;;;4974946;28;20245;-88
2024/01/07 11:18:54;;;;;;;3.97;2.07;;;;;;;;;;4971747;28;20650;-88
2024/01/07 11:21:24;;;;;;;2.20;2.00;;;;;;;;;;4950055;28;20260;-88
2024/01/07 11:23:52;;;;;;;4.73;2.10;;;;;;;;;;4957540;28;20232;-87
2024/01/07 11:26:20;;;;;;;2.70;2.10;;;;;;;;;;4976417;28;20229;-86
2024/01/07 11:28:46;;;;;;;2.13;1.90;;;;;;;;;;4991800;28;20233;-85
2024/01/07 11:31:16;;;;;;;2.40;2.20;;;;;;;;;;4997310;28;20221;-87
2024/01/07 11:33:43;;;;;;;2.20;2.00;;;;;;;;;;4978636;28;20253;-87
2024/01/07 11:36:10;;;;;;;2.50;2.30;;;;;;;;;;4974626;28;20214;-86
2024/01/07 11:38:38;;;;;;;2.57;2.37;;;;;;;;;;4973104;28;20229;-88
2024/01/07 11:41:05;;;;;;;3.87;2.50;;;;;;;;;;4997730;28;20234;-86
2024/01/07 11:43:31;;;;;;;2.43;2.23;;;;;;;;;;4951092;28;20719;-87
2024/01/07 11:45:57;;;;;;;2.80;2.47;;;;;;;;;;4968419;28;20227;-85
2024/01/07 11:48:25;;;;;;;2.93;2.40;;;;;;;;;;4997494;28;20245;-85
2024/01/07 11:50:53;;;;;;;3.67;2.40;;;;;;;;;;4980469;28;20218;-86
2024/01/07 11:53:18;;;;;;;2.73;2.37;;;;;;;;;;4973059;28;20223;-85
2024/01/07 11:55:44;;;;;;;3.77;2.80;;;;;;;;;;4989535;28;21464;-86
2024/01/07 11:58:13;;;;;;;2.23;2.03;;;;;;;;;;5000383;28;20223;-88
2024/01/07 12:00:39;;;;;;;3.27;2.80;;;;;;;;;;4997355;28;20298;-83
2024/01/07 12:03:05;;;;;;;3.40;2.43;;;;;;;;;;4996095;28;20247;-85
2024/01/07 12:05:30;;;;;;;2.63;2.27;;;;;;;;;;4993186;28;20217;-89
2024/01/07 12:08:00;;;;;;;3.87;2.93;;;;;;;;;;4988748;28;20229;-84
2024/01/07 12:10:25;;;;;;;2.67;2.40;;;;;;;;;;4975891;28;20241;-84
2024/01/07 12:12:51;;;;;;;4.93;2.90;;;;;;;;;;4982845;28;20279;-85
2024/01/07 12:15:23;;;;;;;3.67;2.80;;;;;;;;;;4978924;28;20242;-84
2024/01/07 12:17:58;;;;;;;4.27;2.80;;;;;;;;;;4974925;28;20304;-77
2024/01/07 12:20:26;;;;;;;3.93;3.53;;;;;;;;;;4983738;28;20229;-78
2024/01/07 12:22:52;;;;;;;6.67;3.30;;;;;;;;;;4969956;28;20301;-78
2024/01/07 12:25:22;;;;;;;4.00;3.10;;;;;;;;;;4968070;28;20359;-77
2024/01/07 12:27:52;;;;;;;3.30;2.87;;;;;;;;;;4984943;28;20240;-79
2024/01/07 12:30:23;;;;;;;3.43;3.13;;;;;;;;;;4984091;28;20903;-77
2024/01/07 12:32:54;;;;;;;4.47;3.23;;;;;;;;;;4985087;28;20217;-77
2024/01/07 12:35:25;;;;;;;3.83;2.97;;;;;;;;;;4987971;28;20245;-84
2024/01/07 12:37:52;;;;;;;6.70;3.40;;;;;;;;;;4992951;28;20234;-87
2024/01/07 12:40:17;;;;;;;3.30;2.90;;;;;;;;;;4962916;28;20248;-85
2024/01/07 12:42:49;;;;;;;3.47;3.17;;;;;;;;;;4979181;28;20244;-87
2024/01/07 12:45:14;;;;;;;3.23;2.93;;;;;;;;;;4975120;28;20225;-83
2024/01/07 12:47:46;;;;;;;3.17;2.87;;;;;;;;;;4979790;28;20240;-86
2024/01/07 12:50:13;;;;;;;3.20;2.90;;;;;;;;;;4976085;28;20228;-86
2024/01/07 12:53:11;;;;;;;2.97;2.67;;;;;;;;;;4962845;28;20686;-84
2024/01/07 12:55:43;;;;;;;3.37;3.07;;;;;;;;;;4988510;28;20244;-83
2024/01/07 12:58:09;;;;;;;5.70;3.03;;;;;;;;;;4978210;28;20221;-86
2024/01/07 13:00:35;;;;;;;3.90;3.07;;;;;;;;;;4976005;28;20229;-85
2024/01/07 13:03:01;;;;;;;4.23;2.90;;;;;;;;;;4961845;28;20221;-85
2024/01/07 13:05:27;;;;;;;4.37;2.73;;;;;;;;;;4955830;28;20235;-86
2024/01/07 13:07:54;;;;;;;3.47;3.17;;;;;;;;;;4983254;28;20221;-85
2024/01/07 13:10:20;;;;;;;4.10;2.80;;;;;;;;;;4975007;28;20222;-86
2024/01/07 13:12:48;;;;;;;4.37;2.90;;;;;;;;;;4971249;28;20264;-86
2024/01/07 13:15:20;;;;;;;3.17;2.87;;;;;;;;;;4955959;28;20286;-84
2024/01/07 13:17:46;;;;;;;2.70;2.50;;;;;;;;;;4963822;28;20229;-85
2024/01/07 13:20:12;;;;;;;4.23;2.40;;;;;;;;;;4966692;28;20225;-84
2024/01/07 13:22:38;;;;;;;3.00;2.60;;;;;;;;;;4961958;28;20241;-85
2024/01/07 13:25:05;;;;;;;2.90;2.33;;;;;;;;;;4957602;28;20226;-85
2024/01/07 13:27:46;;;;;;;3.47;2.43;;;;;;;;;;4960248;28;20654;-85
2024/01/07 13:30:16;;;;;;;2.60;2.20;;;;;;;;;;4954361;28;20313;-86
2024/01/07 13:32:42;;;;;;;2.63;2.40;;;;;;;;;;4957921;28;20289;-85
2024/01/07 13:35:10;;;;;;;3.00;2.70;;;;;;;;;;4963548;28;20224;-86
2024/01/07 13:37:37;;;;;;;2.90;2.70;;;;;;;;;;4939922;28;20285;-84
2024/01/07 13:40:03;;;;;;;2.93;2.53;;;;;;;;;;4971756;28;20230;-87
2024/01/07 13:42:31;;;;;;;2.43;2.23;;;;;;;;;;4953386;28;20259;-84
2024/01/07 13:45:00;;;;;;;2.90;2.43;;;;;;;;;;4980679;28;20225;-85
2024/01/07 13:47:35;;;;;;;2.80;2.30;;;;;;;;;;4955008;28;20639;-86
2024/01/07 13:50:27;;;;;;;3.17;2.53;;;;;;;;;;4943459;28;20197;-85
2024/01/07 13:52:53;;;;;;;2.63;2.27;;;;;;;;;;4989273;28;20226;-85
2024/01/07 13:55:19;;;;;;;2.47;2.27;;;;;;;;;;4938369;28;20243;-85
2024/01/07 13:57:46;;;;;;;2.37;2.17;;;;;;;;;;4977804;28;20274;-85
2024/01/07 14:00:18;;;;;;;2.17;1.97;;;;;;;;;;4954563;28;20245;-84
2024/01/07 14:02:49;;;;;;;2.37;1.97;;;;;;;;;;4966110;28;20352;-85
2024/01/07 14:05:24;;;;;;;2.67;1.90;;;;;;;;;;4970276;28;20293;-85
2024/01/07 14:07:51;;;;;;;3.20;2.03;;;;;;;;;;4933541;28;20245;-87
2024/01/07 14:10:19;;;;;;;2.23;1.73;;;;;;;;;;4966139;28;20224;-85
2024/01/07 14:12:45;;;;;;;3.23;2.00;;;;;;;;;;4959596;28;20219;-85
2024/01/07 14:15:18;;;;;;;2.73;2.20;;;;;;;;;;4974084;28;20212;-84
2024/01/07 14:17:44;;;;;;;1.70;1.60;;;;;;;;;;4966782;28;20217;-85
2024/01/07 14:20:12;;;;;;;2.20;1.93;;;;;;;;;;4988419;28;20723;-84
2024/01/07 14:22:46;;;;;;;2.03;1.80;;;;;;;;;;4976658;28;20264;-85
2024/01/07 14:25:14;;;;;;;3.47;1.87;;;;;;;;;;4965954;22;20223;-80
2024/01/07 14:27:43;;;;;;;2.03;1.57;;;;;;;;;;5027517;28;20303;-78
2024/01/07 14:30:11;;;;;;;1.90;1.70;;;;;;;;;;5009059;28;20223;-79
2024/01/07 14:32:39;;;;;;;2.63;1.70;;;;;;;;;;5016039;28;20213;-78
2024/01/07 14:35:05;;;;;;;3.73;1.90;;;;;;;;;;4990413;28;20223;-77
2024/01/07 14:37:35;;;;;;;1.63;1.53;;;;;;;;;;4987816;28;20295;-76
2024/01/07 14:40:06;;;;;;;2.23;2.03;;;;;;;;;;5002032;28;20352;-78
2024/01/07 14:42:37;;;;;;;1.73;1.63;;;;;;;;;;4990831;28;20224;-78
2024/01/07 14:45:04;;;;;;;2.37;1.80;;;;;;;;;;4990155;28;20308;-78
2024/01/07 14:47:31;;;;;;;2.50;2.30;;;;;;;;;;5007388;28;20221;-78
2024/01/07 14:49:57;;;;;;;3.23;2.93;;;;;;;;;;5010995;28;20234;-77